Terminal Aerodrome Forecast
Issued by NWS

Home | Current Version | Previous Version | Graphics & Text | Print | Product List | Glossary Off
Versions: 1 2 3 4 5 6 7 8 9 10 11 12 13 14 15 16 17 18 19 20 21 22 23 24 25 26 27 28 29 30 31 32 33 34 35 36 37 38 39 40 41 42 43

000
FTUS43 KDDC 182206 AAA
TAFGCK
TAF AMD
KGCK 182206Z 1822/1918 21021G34KT P6SM SKC
     FM190000 19014KT P6SM FEW250
     FM190200 20015KT P6SM FEW250 WS020/22045KT
     FM190800 32014KT P6SM SCT250
     FM191300 03014KT P6SM BKN015=

USA.gov is the U.S. government's official web portal to all federal, state and local government web resources and services.